»·PEaware :: AWE1092 KELP-KPHX

AWE1092 :: KELP-KPHX

FLIGHT INFORMATION

Flight Status: Arrived
Operator:
US Airways
More flights by this operator :: More flights under this callsign
Pilot: Skye D. (10623)
Aircraft: BOEING 737-200
(B732)
More flights by this aircraft type
Origin: KELP El Paso Intl
United States
Destination: KPHX Phoenix Sky Harbor Intl
United States
More flights between these airports :: More routes between these airports
Route: ATKNN5 ATKNN DRRVR PINNG1
File this flight plan on PilotEdge
Remarks:
Altitude:
(Current/Filed)
30,000ft
Speed:
(Current/Filed)
442kts
Departed: 13-Mar-18 10:00 AM
Arrived: 13-Mar-18 11:03 AM
Distance/Time
Traveled:
300nm/1:02
Distance/Time
To Go:
Arrived

Flight Plot

Page will automatically refresh every two minutes.

Flight plan parsing failed; only flown route is shown


Map Options




Map Legend


Flown Route
Filed Route
Departure Airport
Arrival Airport
Navaid (VOR, NDB)
Fix

Horizontal Profiles

Position Reports

Time Latitude Longitude Heading Altitude Ground
Speed
13-Mar-18 09:33 31.800696 -106.396245 230 3967ft 0kts
13-Mar-18 09:34 31.800696 -106.396245 230 3967ft 0kts
13-Mar-18 09:35 31.800696 -106.396245 230 3967ft 0kts
13-Mar-18 09:36 31.800696 -106.396245 230 3967ft 0kts
13-Mar-18 09:37 31.800696 -106.396245 230 3967ft 0kts
13-Mar-18 09:38 31.800696 -106.396245 230 3967ft 0kts
13-Mar-18 09:39 31.800696 -106.396245 230 3967ft 0kts
13-Mar-18 09:40 31.800696 -106.396245 230 3967ft 0kts
13-Mar-18 09:41 31.800696 -106.396245 230 3967ft 0kts
13-Mar-18 09:42 31.800696 -106.396245 230 3967ft 0kts
13-Mar-18 09:43 31.800696 -106.396245 230 3967ft 0kts
13-Mar-18 09:44 31.800696 -106.396245 230 3967ft 0kts
13-Mar-18 09:45 31.800696 -106.396245 230 3967ft 0kts
13-Mar-18 09:46 31.800696 -106.396245 230 3967ft 0kts
13-Mar-18 09:47 31.800696 -106.396245 230 3967ft 0kts
13-Mar-18 09:48 31.800711 -106.396220 251 3967ft 1kts
13-Mar-18 09:49 31.801088 -106.395906 172 3967ft 2kts
13-Mar-18 09:50 31.801472 -106.396375 94 3967ft 2kts
13-Mar-18 09:51 31.801468 -106.396511 84 3967ft 0kts
13-Mar-18 09:52 31.801577 -106.396062 40 3967ft 0kts
13-Mar-18 09:53 31.801577 -106.396062 40 3967ft 0kts
13-Mar-18 09:54 31.801577 -106.396062 40 3967ft 0kts
13-Mar-18 09:55 31.801795 -106.396041 298 3967ft 4kts
13-Mar-18 09:56 31.801733 -106.397791 319 3967ft 0kts
13-Mar-18 09:57 31.801733 -106.397791 319 3967ft 0kts
13-Mar-18 09:58 31.803019 -106.397798 48 3967ft 13kts
13-Mar-18 09:59 31.821665 -106.371859 50 4770ft 136kts
13-Mar-18 10:00 31.851322 -106.336382 25 6733ft 155kts
13-Mar-18 10:01 31.866914 -106.375482 254 8121ft 208kts
13-Mar-18 10:02 31.848685 -106.450052 253 9878ft 267kts
13-Mar-18 10:03 31.826955 -106.536478 253 11932ft 287kts
13-Mar-18 10:04 31.816245 -106.630876 277 14046ft 301kts
13-Mar-18 10:05 31.829043 -106.729187 279 16017ft 327kts
13-Mar-18 10:06 31.845041 -106.841130 279 17935ft 351kts
13-Mar-18 10:07 31.861519 -106.955553 279 20112ft 359kts
13-Mar-18 10:08 31.878171 -107.071575 279 22067ft 365kts
13-Mar-18 10:09 31.895094 -107.190190 279 23825ft 371kts
13-Mar-18 10:10 31.912070 -107.309857 279 25509ft 373kts
13-Mar-18 10:11 31.929060 -107.430663 279 27056ft 375kts
13-Mar-18 10:12 31.946026 -107.552137 278 28434ft 377kts
13-Mar-18 10:13 31.962985 -107.673956 278 29687ft 379kts
13-Mar-18 10:14 31.980263 -107.796637 278 30249ft 384kts
13-Mar-18 10:15 31.997373 -107.921476 278 30247ft 386kts
13-Mar-18 10:16 32.014177 -108.045331 278 30245ft 385kts
13-Mar-18 10:17 32.030906 -108.169633 278 30243ft 384kts
13-Mar-18 10:18 32.047450 -108.293444 278 30240ft 382kts
13-Mar-18 10:19 32.063795 -108.416820 278 30258ft 381kts
13-Mar-18 10:20 32.079930 -108.539499 278 30255ft 379kts
13-Mar-18 10:21 32.095606 -108.659574 277 30259ft 377kts
13-Mar-18 10:22 32.111680 -108.780263 277 30270ft 378kts
13-Mar-18 10:23 32.127470 -108.902578 277 30267ft 378kts
13-Mar-18 10:24 32.143045 -109.024634 277 30163ft 381kts
13-Mar-18 10:25 32.158670 -109.148121 277 30172ft 380kts
13-Mar-18 10:26 32.174145 -109.271317 277 30167ft 380kts
13-Mar-18 10:27 32.197334 -109.393047 281 30167ft 380kts
13-Mar-18 10:28 32.222604 -109.513995 281 30165ft 379kts
13-Mar-18 10:29 32.247975 -109.634605 282 30163ft 378kts
13-Mar-18 10:30 32.273607 -109.754842 281 30178ft 379kts
13-Mar-18 10:31 32.299028 -109.876152 281 30176ft 381kts
13-Mar-18 10:32 32.324255 -109.997624 281 30180ft 382kts
13-Mar-18 10:33 32.349151 -110.118166 281 30101ft 382kts
13-Mar-18 10:34 32.373870 -110.238577 281 29290ft 378kts
13-Mar-18 10:35 32.398529 -110.359247 281 28216ft 376kts
13-Mar-18 10:36 32.422961 -110.479450 281 27176ft 376kts
13-Mar-18 10:37 32.447311 -110.599830 282 26199ft 376kts
13-Mar-18 10:38 32.475907 -110.717498 299 25266ft 380kts
13-Mar-18 10:39 32.533603 -110.821877 302 23326ft 384kts
13-Mar-18 10:40 32.591761 -110.924257 302 22018ft 373kts
13-Mar-18 10:41 32.648089 -111.023175 302 20456ft 365kts
13-Mar-18 10:42 32.703739 -111.121049 302 18759ft 357kts
13-Mar-18 10:43 32.758245 -111.217280 302 17103ft 348kts
13-Mar-18 10:44 32.810717 -111.310293 303 15668ft 336kts
13-Mar-18 10:45 32.856575 -111.391594 302 14666ft 291kts
13-Mar-18 10:46 32.900715 -111.470072 303 13064ft 285kts
13-Mar-18 10:47 32.947343 -111.542916 307 12638ft 288kts
13-Mar-18 10:48 32.996832 -111.616933 308 12013ft 286kts
13-Mar-18 10:49 33.047172 -111.691835 307 12020ft 293kts
13-Mar-18 10:50 33.096000 -111.764815 307 11645ft 276kts
13-Mar-18 10:51 33.141894 -111.833901 308 10060ft 275kts
13-Mar-18 10:52 33.185478 -111.899585 309 9234ft 251kts
13-Mar-18 10:53 33.227797 -111.963484 309 7979ft 246kts
13-Mar-18 10:54 33.249057 -112.024203 268 8041ft 207kts
13-Mar-18 10:55 33.254254 -112.091726 322 7610ft 203kts
13-Mar-18 10:56 33.309385 -112.099847 357 5946ft 205kts
13-Mar-18 10:57 33.354968 -112.130445 319 4067ft 207kts
13-Mar-18 10:58 33.398277 -112.113241 46 3061ft 173kts
13-Mar-18 10:59 33.426937 -112.083988 62 1973ft 146kts
13-Mar-18 11:00 33.428630 -112.043307 91 1453ft 140kts
13-Mar-18 11:01 33.428873 -112.008529 90 1143ft 46kts
13-Mar-18 11:02 33.429610 -112.004598 52 1143ft 0kts
13-Mar-18 11:03 33.431922 -112.003449 333 1143ft 8kts
13-Mar-18 11:04 33.436713 -112.003812 0 1143ft 21kts
13-Mar-18 11:05 33.439017 -112.001839 89 1143ft 12kts
13-Mar-18 11:06 33.437872 -111.999974 97 1143ft 2kts
13-Mar-18 11:07 33.437862 -111.999792 91 1143ft 0kts
13-Mar-18 11:08 33.437862 -111.999792 91 1143ft 0kts

Navigation Log

Ident Type
Flight plan parsing failed, navigation log unavailable